Time;durP1;ratioP1;P1;durP2;ratioP2;P2;SDS_P1;SDS_P2;PMS_P1;PMS_P2;Temp;Humidity;BMP_temperature;BMP_pressure;BME280_temperature;BME280_humidity;BME280_pressure;Samples;Min_cycle;Max_cycle;Signal;HPM_P1;HPM_P2
2021/03/10 00:01:50;;;;;;;80.88;18.75;;;5.40;1.00;;;;;;5133353;27;20207;-67
2021/03/10 00:04:16;;;;;;;84.95;19.52;;;5.40;1.00;;;;;;5133337;27;20587;-68
2021/03/10 00:06:44;;;;;;;79.30;19.15;;;5.40;1.00;;;;;;5133118;27;20227;-67
2021/03/10 00:09:10;;;;;;;81.95;20.27;;;5.40;1.00;;;;;;5126240;27;20572;-67
2021/03/10 00:11:36;;;;;;;82.72;19.60;;;5.40;1.00;;;;;;5129052;27;20225;-67
2021/03/10 00:14:03;;;;;;;83.47;21.05;;;5.40;1.00;;;;;;5123827;27;20199;-68
2021/03/10 00:16:29;;;;;;;82.38;20.73;;;5.40;1.00;;;;;;5130070;27;20225;-68
2021/03/10 00:18:55;;;;;;;80.88;20.20;;;5.40;1.00;;;;;;5126379;27;20203;-67
2021/03/10 00:21:22;;;;;;;82.97;20.85;;;5.40;1.00;;;;;;5127090;27;20211;-68
2021/03/10 00:23:49;;;;;;;88.22;21.48;;;5.40;1.00;;;;;;5132638;27;20222;-67
2021/03/10 00:26:15;;;;;;;82.45;20.08;;;5.40;1.00;;;;;;5130597;27;20230;-67
2021/03/10 00:28:42;;;;;;;81.97;19.15;;;5.40;1.00;;;;;;5132404;27;20226;-68
2021/03/10 00:31:08;;;;;;;83.35;21.52;;;5.40;1.00;;;;;;5132790;27;20225;-68
2021/03/10 00:33:34;;;;;;;82.45;21.58;;;5.40;1.00;;;;;;5132621;27;20206;-67
2021/03/10 00:36:00;;;;;;;82.15;20.73;;;5.40;1.00;;;;;;5132334;27;20762;-68
2021/03/10 00:38:27;;;;;;;84.32;20.60;;;5.40;1.00;;;;;;5131948;27;20251;-67
2021/03/10 00:40:54;;;;;;;83.35;20.95;;;5.40;1.00;;;;;;5132611;27;20203;-68
2021/03/10 00:43:20;;;;;;;84.85;22.08;;;5.40;1.00;;;;;;5132372;27;20331;-68
2021/03/10 00:45:47;;;;;;;84.38;21.65;;;5.40;1.00;;;;;;5132310;27;20198;-66
2021/03/10 00:48:13;;;;;;;82.53;20.33;;;5.40;1.00;;;;;;5132548;27;20223;-66
2021/03/10 00:50:40;;;;;;;81.95;20.75;;;5.40;1.00;;;;;;5132468;27;20257;-66
2021/03/10 00:53:06;;;;;;;84.38;20.20;;;5.40;1.00;;;;;;5132406;27;20203;-67
2021/03/10 00:55:32;;;;;;;85.78;21.73;;;5.40;1.00;;;;;;5132070;27;20213;-67
2021/03/10 00:57:59;;;;;;;80.45;20.63;;;5.40;1.00;;;;;;5126821;27;20223;-67
2021/03/10 01:00:26;;;;;;;85.53;21.92;;;5.40;1.00;;;;;;5132097;27;20203;-67
2021/03/10 01:02:52;;;;;;;83.18;20.17;;;5.40;1.00;;;;;;5132463;27;20298;-67
2021/03/10 01:05:18;;;;;;;82.75;19.75;;;5.40;1.00;;;;;;5132390;27;20211;-67
2021/03/10 01:07:45;;;;;;;80.90;18.55;;;5.40;1.00;;;;;;5132188;27;20223;-67
2021/03/10 01:10:12;;;;;;;86.10;21.95;;;5.40;1.00;;;;;;5132102;27;20203;-67
2021/03/10 01:12:39;;;;;;;81.75;20.70;;;5.40;1.00;;;;;;5132405;27;20253;-67
2021/03/10 01:15:07;;;;;;;81.40;20.52;;;5.30;1.00;;;;;;5132153;27;20199;-67
2021/03/10 01:17:34;;;;;;;81.97;21.33;;;5.30;1.00;;;;;;5132255;27;20246;-67
2021/03/10 01:20:00;;;;;;;83.00;22.40;;;5.30;1.00;;;;;;5132114;27;20245;-67
2021/03/10 01:22:26;;;;;;;84.07;22.55;;;5.30;1.00;;;;;;5132154;27;20305;-67
2021/03/10 01:24:53;;;;;;;82.82;19.80;;;5.30;1.00;;;;;;5132092;27;20206;-67
2021/03/10 01:27:19;;;;;;;85.20;21.48;;;5.30;1.00;;;;;;5132250;27;20223;-66
2021/03/10 01:29:46;;;;;;;82.60;20.70;;;5.30;1.00;;;;;;5132214;27;20289;-67
2021/03/10 01:32:13;;;;;;;85.63;22.50;;;5.30;1.00;;;;;;5131910;27;20312;-68
2021/03/10 01:34:40;;;;;;;90.75;23.50;;;5.30;1.00;;;;;;5132407;27;20237;-67
2021/03/10 01:37:06;;;;;;;88.53;21.98;;;5.30;1.00;;;;;;5132174;27;20223;-66
2021/03/10 01:39:32;;;;;;;84.00;22.80;;;5.30;1.00;;;;;;5132338;27;20209;-66
2021/03/10 01:41:59;;;;;;;82.88;21.83;;;5.30;1.00;;;;;;5132607;27;20199;-67
2021/03/10 01:44:25;;;;;;;87.60;23.90;;;5.30;1.00;;;;;;5132609;27;20746;-66
2021/03/10 01:46:52;;;;;;;88.80;22.83;;;5.30;1.00;;;;;;5132356;27;20761;-67
2021/03/10 01:49:21;;;;;;;83.88;22.50;;;5.30;1.00;;;;;;5135351;27;20223;-66
2021/03/10 01:51:48;;;;;;;84.45;22.13;;;5.30;1.00;;;;;;5136188;27;20206;-66
2021/03/10 01:54:14;;;;;;;87.30;23.05;;;5.30;1.00;;;;;;5135810;27;20207;-66
2021/03/10 01:56:42;;;;;;;87.35;24.58;;;5.30;1.00;;;;;;5136440;27;20234;-67
2021/03/10 01:59:08;;;;;;;84.40;21.40;;;5.30;1.00;;;;;;5136449;27;20199;-67
2021/03/10 02:01:35;;;;;;;85.68;21.83;;;5.20;1.00;;;;;;5136443;27;20277;-67
2021/03/10 02:04:03;;;;;;;89.22;22.40;;;5.20;1.00;;;;;;5136099;27;20242;-67
2021/03/10 02:06:40;;;;;;;86.47;22.40;;;5.20;1.00;;;;;;5135932;27;20309;-67
2021/03/10 02:09:12;;;;;;;87.88;23.23;;;5.20;1.00;;;;;;5135432;27;20568;-67
2021/03/10 02:11:43;;;;;;;86.90;23.63;;;5.20;1.00;;;;;;5135696;27;20647;-67
2021/03/10 02:14:19;;;;;;;87.20;23.25;;;5.20;1.00;;;;;;5135269;27;20248;-67
2021/03/10 02:16:49;;;;;;;89.70;24.25;;;5.20;1.00;;;;;;5135824;27;20233;-67
2021/03/10 02:19:30;;;;;;;88.65;24.52;;;5.20;1.00;;;;;;5135261;27;20237;-67
2021/03/10 02:22:04;;;;;;;86.60;23.60;;;5.20;1.00;;;;;;5135449;27;20209;-67
2021/03/10 02:24:58;;;;;;;91.57;25.17;;;5.20;1.00;;;;;;5135109;27;20202;-67
2021/03/10 02:27:45;;;;;;;88.13;21.35;;;5.20;1.00;;;;;;5125924;27;20235;-66
2021/03/10 02:30:15;;;;;;;84.97;22.73;;;5.20;1.00;;;;;;5127556;27;20209;-67
2021/03/10 02:32:46;;;;;;;90.65;24.05;;;5.20;1.00;;;;;;5134805;27;20197;-67
2021/03/10 02:35:13;;;;;;;83.88;21.67;;;5.20;1.00;;;;;;5134658;27;20252;-67
2021/03/10 02:37:45;;;;;;;83.57;21.33;;;5.20;1.00;;;;;;5134784;27;20214;-67
2021/03/10 02:40:15;;;;;;;95.90;24.23;;;5.20;1.00;;;;;;5135241;27;20275;-67
2021/03/10 02:42:46;;;;;;;92.68;25.10;;;5.20;1.00;;;;;;5135003;27;20219;-67
2021/03/10 02:45:14;;;;;;;92.60;24.65;;;5.20;1.00;;;;;;5134753;27;20203;-67
2021/03/10 02:47:41;;;;;;;95.82;25.23;;;5.20;1.00;;;;;;5134557;27;20250;-67
2021/03/10 02:50:10;;;;;;;89.35;25.05;;;5.20;1.00;;;;;;5134431;27;20203;-67
2021/03/10 02:52:38;;;;;;;96.78;27.63;;;5.20;1.00;;;;;;5134724;27;20288;-67
2021/03/10 02:55:05;;;;;;;99.43;26.40;;;5.20;1.00;;;;;;5134837;27;20339;-67
2021/03/10 02:57:32;;;;;;;89.40;24.33;;;5.20;1.00;;;;;;5128380;27;20243;-67
2021/03/10 03:00:03;;;;;;;93.82;24.80;;;5.20;1.00;;;;;;5124049;27;20198;-67
2021/03/10 03:02:30;;;;;;;92.60;26.45;;;5.30;1.00;;;;;;5134358;27;20285;-67
2021/03/10 03:04:56;;;;;;;90.07;25.20;;;5.20;1.00;;;;;;5134107;27;20339;-66
2021/03/10 03:07:22;;;;;;;89.72;24.60;;;5.20;1.00;;;;;;5134233;27;20275;-67
2021/03/10 03:09:49;;;;;;;97.85;25.45;;;5.20;1.00;;;;;;5134082;27;20199;-66
2021/03/10 03:12:16;;;;;;;96.90;27.15;;;5.20;1.00;;;;;;5134598;27;20234;-67
2021/03/10 03:14:43;;;;;;;91.43;25.92;;;5.10;1.00;;;;;;5134185;27;20292;-67
2021/03/10 03:17:12;;;;;;;89.57;25.10;;;5.10;1.00;;;;;;5134029;27;20229;-67
2021/03/10 03:19:38;;;;;;;90.85;26.40;;;5.00;1.00;;;;;;5133829;27;20210;-67
2021/03/10 03:22:06;;;;;;;89.97;25.88;;;5.00;1.00;;;;;;5133829;27;20242;-67
2021/03/10 03:24:34;;;;;;;93.72;24.50;;;4.90;1.00;;;;;;5134148;27;20289;-67
2021/03/10 03:27:02;;;;;;;97.82;27.33;;;4.90;1.00;;;;;;5134075;27;20229;-67
2021/03/10 03:29:30;;;;;;;98.80;27.60;;;4.90;1.00;;;;;;5133698;27;20226;-67
2021/03/10 03:31:58;;;;;;;95.95;27.52;;;4.90;1.00;;;;;;5133670;27;20332;-67
2021/03/10 03:34:26;;;;;;;93.43;24.77;;;4.90;1.00;;;;;;5133838;27;20211;-67
2021/03/10 03:36:53;;;;;;;91.22;24.65;;;4.90;1.00;;;;;;5133585;27;20234;-67
2021/03/10 03:39:20;;;;;;;91.78;23.88;;;4.90;1.00;;;;;;5133636;27;20203;-67
2021/03/10 03:41:47;;;;;;;93.22;24.95;;;4.90;1.00;;;;;;5133669;27;20220;-67
2021/03/10 03:44:13;;;;;;;96.25;26.65;;;4.80;1.00;;;;;;5133546;27;20207;-67
2021/03/10 03:46:40;;;;;;;96.22;26.95;;;4.80;1.00;;;;;;5133210;27;20782;-67
2021/03/10 03:49:07;;;;;;;96.50;26.63;;;4.80;1.00;;;;;;5133748;27;20226;-67
2021/03/10 03:51:34;;;;;;;90.88;24.92;;;4.80;1.00;;;;;;5133634;27;20290;-67
2021/03/10 03:54:02;;;;;;;94.55;27.30;;;4.70;1.00;;;;;;5133291;27;20210;-67
2021/03/10 03:56:29;;;;;;;97.25;26.30;;;4.70;1.00;;;;;;5133334;27;20227;-67
2021/03/10 03:58:55;;;;;;;96.55;25.75;;;4.60;1.00;;;;;;5133178;27;20199;-67
2021/03/10 04:01:22;;;;;;;92.75;24.20;;;4.60;1.00;;;;;;5133311;27;20207;-67
2021/03/10 04:03:49;;;;;;;89.20;24.15;;;4.60;1.00;;;;;;5132955;27;20214;-67
2021/03/10 04:06:17;;;;;;;93.60;26.92;;;4.60;1.00;;;;;;5133166;27;20268;-67
2021/03/10 04:08:45;;;;;;;91.15;25.00;;;4.60;1.00;;;;;;5132933;27;20314;-67
2021/03/10 04:11:13;;;;;;;89.95;25.13;;;4.50;1.00;;;;;;5132981;27;20229;-67
2021/03/10 04:13:39;;;;;;;96.68;27.05;;;4.60;1.00;;;;;;5132789;27;20207;-67
2021/03/10 04:16:07;;;;;;;89.10;25.77;;;4.60;1.00;;;;;;5132825;27;20227;-67
2021/03/10 04:18:33;;;;;;;92.47;27.25;;;4.60;1.00;;;;;;5132765;27;20668;-67
2021/03/10 04:21:00;;;;;;;92.28;25.05;;;4.60;1.00;;;;;;5133099;27;20608;-66
2021/03/10 04:23:26;;;;;;;93.78;26.30;;;4.50;1.00;;;;;;5132847;27;20270;-66
2021/03/10 04:25:53;;;;;;;90.50;25.50;;;4.50;1.00;;;;;;5128650;27;20280;-66
2021/03/10 04:28:19;;;;;;;96.60;26.25;;;4.50;1.00;;;;;;5126580;27;20574;-66
2021/03/10 04:30:46;;;;;;;95.75;26.48;;;4.50;1.00;;;;;;5131364;27;20203;-66
2021/03/10 04:33:12;;;;;;;90.97;26.63;;;4.50;1.00;;;;;;5132582;27;20205;-66
2021/03/10 04:35:38;;;;;;;92.20;25.27;;;4.50;1.00;;;;;;5132537;27;20291;-66
2021/03/10 04:38:05;;;;;;;104.13;27.67;;;4.50;1.00;;;;;;5132676;27;20553;-66
2021/03/10 04:40:31;;;;;;;93.20;24.60;;;4.50;1.00;;;;;;5132551;27;20207;-67
2021/03/10 04:42:58;;;;;;;97.07;27.83;;;4.50;1.00;;;;;;5132614;27;20207;-67
2021/03/10 04:45:25;;;;;;;95.55;27.20;;;4.50;1.00;;;;;;5132771;27;20228;-67
2021/03/10 04:47:52;;;;;;;94.03;25.23;;;4.50;1.00;;;;;;5132708;27;20825;-66
2021/03/10 04:50:19;;;;;;;88.95;23.05;;;4.50;1.00;;;;;;5126356;27;20256;-66
2021/03/10 04:52:45;;;;;;;94.78;25.90;;;4.50;1.00;;;;;;5132168;27;20613;-66
2021/03/10 04:55:12;;;;;;;92.72;26.25;;;4.50;1.00;;;;;;5132152;27;20194;-66
2021/03/10 04:57:39;;;;;;;92.75;25.92;;;4.50;1.00;;;;;;5128297;27;20310;-66
2021/03/10 05:00:08;;;;;;;93.10;25.73;;;4.50;1.00;;;;;;5132269;27;20199;-67
2021/03/10 05:02:36;;;;;;;91.75;25.85;;;4.50;1.00;;;;;;5132273;27;20286;-67
2021/03/10 05:05:03;;;;;;;94.57;25.90;;;4.50;1.00;;;;;;5131925;27;20201;-67
2021/03/10 05:07:30;;;;;;;93.43;25.52;;;4.40;1.00;;;;;;5132013;27;20217;-67
2021/03/10 05:09:56;;;;;;;89.68;24.45;;;4.40;1.00;;;;;;5132035;27;20199;-67
2021/03/10 05:12:23;;;;;;;96.30;28.77;;;4.40;1.00;;;;;;5132474;27;20259;-67
2021/03/10 05:14:49;;;;;;;98.20;28.17;;;4.40;1.00;;;;;;5132309;27;20198;-67
2021/03/10 05:17:16;;;;;;;93.95;26.00;;;4.40;1.00;;;;;;5132295;27;20227;-68
2021/03/10 05:19:42;;;;;;;94.60;26.83;;;4.40;1.00;;;;;;5132197;27;20294;-66
2021/03/10 05:22:09;;;;;;;95.00;25.60;;;4.40;1.00;;;;;;5132011;27;20225;-66
2021/03/10 05:24:35;;;;;;;92.07;26.05;;;4.30;1.00;;;;;;5135588;27;20266;-66
2021/03/10 05:27:02;;;;;;;93.82;26.13;;;4.30;1.00;;;;;;5134300;27;20274;-66
2021/03/10 05:29:28;;;;;;;94.57;25.02;;;4.30;1.00;;;;;;5136023;27;20226;-66
2021/03/10 05:31:54;;;;;;;89.28;23.73;;;4.30;1.00;;;;;;5136176;27;20235;-66
2021/03/10 05:34:22;;;;;;;93.32;26.25;;;4.30;1.00;;;;;;5136319;27;20567;-66
2021/03/10 05:36:48;;;;;;;91.22;26.77;;;4.30;1.00;;;;;;5135933;27;20226;-67
2021/03/10 05:39:14;;;;;;;90.40;25.90;;;4.40;1.00;;;;;;5136023;27;20275;-66
2021/03/10 05:41:41;;;;;;;89.32;26.83;;;4.40;1.00;;;;;;5136321;27;20239;-66
2021/03/10 05:44:08;;;;;;;92.60;26.70;;;4.40;1.00;;;;;;5135910;27;20626;-66
2021/03/10 05:46:34;;;;;;;87.53;24.00;;;4.40;1.00;;;;;;5135920;27;20255;-67
2021/03/10 05:49:01;;;;;;;93.15;26.50;;;4.40;1.00;;;;;;5135712;27;20233;-67
2021/03/10 05:51:28;;;;;;;95.03;26.20;;;4.50;1.00;;;;;;5135940;27;20253;-67
2021/03/10 05:53:58;;;;;;;93.03;27.63;;;4.50;1.00;;;;;;5135863;27;20213;-67
2021/03/10 05:56:25;;;;;;;92.00;24.45;;;4.50;1.00;;;;;;5135872;27;20258;-67
2021/03/10 05:58:56;;;;;;;96.07;26.85;;;4.50;1.00;;;;;;5135754;27;20366;-67
2021/03/10 06:01:23;;;;;;;91.25;25.58;;;4.50;1.00;;;;;;5135733;27;20243;-67
2021/03/10 06:03:53;;;;;;;92.47;24.95;;;4.50;1.00;;;;;;5135462;27;20297;-67
2021/03/10 06:06:20;;;;;;;89.97;25.80;;;4.50;1.00;;;;;;5135280;27;20694;-67
2021/03/10 06:08:47;;;;;;;90.13;27.63;;;4.50;1.00;;;;;;5135686;27;20603;-67
2021/03/10 06:11:22;;;;;;;93.43;25.50;;;4.60;1.00;;;;;;5135702;27;20579;-67
2021/03/10 06:13:49;;;;;;;94.53;26.88;;;4.60;1.00;;;;;;5135327;27;20202;-67
2021/03/10 06:16:21;;;;;;;94.78;26.08;;;4.60;1.00;;;;;;5135697;27;20274;-67
2021/03/10 06:18:47;;;;;;;89.50;25.70;;;4.60;1.00;;;;;;5135060;27;20221;-67
2021/03/10 06:21:15;;;;;;;93.47;28.30;;;4.70;1.00;;;;;;5130514;27;20580;-66
2021/03/10 06:23:53;;;;;;;98.15;28.52;;;4.70;1.00;;;;;;5132125;27;20195;-67
2021/03/10 06:26:20;;;;;;;94.93;26.95;;;4.80;1.00;;;;;;5133137;27;20305;-67
2021/03/10 06:28:47;;;;;;;95.93;29.40;;;4.80;1.00;;;;;;5134468;27;20255;-67
2021/03/10 06:31:21;;;;;;;98.10;29.15;;;4.80;1.00;;;;;;5135023;27;20195;-67
2021/03/10 06:34:01;;;;;;;92.57;26.63;;;4.90;1.00;;;;;;5134484;27;20233;-67
2021/03/10 06:36:29;;;;;;;94.93;28.67;;;4.90;1.00;;;;;;5134138;27;20222;-67
2021/03/10 06:38:57;;;;;;;91.75;26.33;;;4.90;1.00;;;;;;5134866;27;20667;-67
2021/03/10 06:41:31;;;;;;;100.63;30.02;;;5.00;1.00;;;;;;5134962;27;20203;-67
2021/03/10 06:43:58;;;;;;;90.10;25.80;;;5.00;1.00;;;;;;5129923;27;20234;-67
2021/03/10 06:46:25;;;;;;;92.18;28.00;;;5.10;1.00;;;;;;5134920;27;20710;-67
2021/03/10 06:48:59;;;;;;;95.90;28.02;;;5.10;1.00;;;;;;5134954;27;20223;-67
2021/03/10 06:51:27;;;;;;;97.07;27.88;;;5.20;1.00;;;;;;5134844;27;20625;-67
2021/03/10 06:53:55;;;;;;;97.47;28.80;;;5.30;1.00;;;;;;5134504;27;20217;-67
2021/03/10 06:56:23;;;;;;;91.75;25.70;;;5.30;1.00;;;;;;5134577;27;20227;-67
2021/03/10 06:59:01;;;;;;;96.22;28.80;;;5.40;1.00;;;;;;5130178;27;20286;-67
2021/03/10 07:01:36;;;;;;;97.47;28.85;;;5.50;1.00;;;;;;5134544;27;20275;-67
2021/03/10 07:04:03;;;;;;;91.85;28.35;;;5.50;1.00;;;;;;5134162;27;20271;-67
2021/03/10 07:06:30;;;;;;;97.35;28.88;;;5.60;1.00;;;;;;5134248;27;20230;-67
2021/03/10 07:08:57;;;;;;;95.90;29.23;;;5.70;1.00;;;;;;5134165;27;20238;-67
2021/03/10 07:11:24;;;;;;;94.13;27.65;;;5.70;1.00;;;;;;5134182;27;20230;-67
2021/03/10 07:13:51;;;;;;;94.03;25.08;;;5.80;1.00;;;;;;5134497;27;20468;-67
2021/03/10 07:16:18;;;;;;;97.28;28.33;;;5.90;1.00;;;;;;5134412;27;20766;-67
2021/03/10 07:18:46;;;;;;;101.03;30.63;;;5.90;1.00;;;;;;5134241;27;20199;-67
2021/03/10 07:21:16;;;;;;;99.70;30.33;;;6.00;1.00;;;;;;5134136;27;20691;-67
2021/03/10 07:23:48;;;;;;;99.80;29.27;;;6.10;1.00;;;;;;5134439;27;20589;-67
2021/03/10 07:26:17;;;;;;;98.18;28.92;;;6.20;1.00;;;;;;5134242;27;20227;-67
2021/03/10 07:28:50;;;;;;;94.65;28.60;;;6.20;1.00;;;;;;5133996;27;20270;-67
2021/03/10 07:31:21;;;;;;;98.40;29.02;;;6.30;1.00;;;;;;5133998;27;20676;-67
2021/03/10 07:33:52;;;;;;;97.72;29.00;;;6.50;1.00;;;;;;5133632;27;20210;-67
2021/03/10 07:36:18;;;;;;;94.63;27.65;;;6.60;1.00;;;;;;5133720;27;20237;-67
2021/03/10 07:38:45;;;;;;;94.90;28.17;;;6.60;1.00;;;;;;5134089;27;20276;-67
2021/03/10 07:41:12;;;;;;;93.82;26.98;;;6.80;1.00;;;;;;5133887;27;20231;-67
2021/03/10 07:43:41;;;;;;;95.90;29.35;;;6.80;1.00;;;;;;5133700;27;20294;-67
2021/03/10 07:46:22;;;;;;;95.90;28.55;;;6.90;1.00;;;;;;5133140;27;20227;-67
2021/03/10 07:48:49;;;;;;;97.05;28.05;;;7.00;1.00;;;;;;5133640;27;20729;-67
2021/03/10 07:51:33;;;;;;;93.40;27.35;;;7.10;1.00;;;;;;5129774;27;20611;-67
2021/03/10 07:54:00;;;;;;;95.05;28.65;;;7.30;1.00;;;;;;5133993;27;20208;-67
2021/03/10 07:56:28;;;;;;;95.78;28.63;;;7.30;1.00;;;;;;5133447;27;20714;-67
2021/03/10 07:59:07;;;;;;;92.05;27.70;;;7.40;1.00;;;;;;5133392;27;20198;-67
2021/03/10 08:01:34;;;;;;;95.93;29.17;;;7.50;1.00;;;;;;5133780;27;20231;-67
2021/03/10 08:04:08;;;;;;;88.32;24.85;;;7.50;1.00;;;;;;5131333;27;20290;-67
2021/03/10 08:06:44;;;;;;;93.43;27.15;;;7.60;1.00;;;;;;5129873;27;20391;-67
2021/03/10 08:09:11;;;;;;;96.13;26.20;;;7.50;1.00;;;;;;5127105;27;20219;-68
2021/03/10 08:11:43;;;;;;;93.18;27.23;;;7.50;1.00;;;;;;5133009;27;20207;-67
2021/03/10 08:14:10;;;;;;;92.40;27.88;;;7.50;1.00;;;;;;5133366;27;20204;-67
2021/03/10 08:16:45;;;;;;;92.05;26.38;;;7.60;1.00;;;;;;5133115;27;20714;-68
2021/03/10 08:19:11;;;;;;;94.28;27.27;;;7.70;1.00;;;;;;5133245;27;20195;-67
2021/03/10 08:21:47;;;;;;;91.65;26.65;;;7.80;1.00;;;;;;5109031;27;20261;-67
2021/03/10 08:24:14;;;;;;;87.47;24.98;;;7.80;1.00;;;;;;5101463;27;20207;-66
2021/03/10 08:26:41;;;;;;;89.38;26.08;;;7.90;1.00;;;;;;5115919;27;20311;-67
2021/03/10 08:29:08;;;;;;;87.32;25.67;;;7.90;1.00;;;;;;5126509;27;20229;-68
2021/03/10 08:31:44;;;;;;;93.13;27.70;;;8.00;1.00;;;;;;5130063;27;20291;-68
2021/03/10 08:34:10;;;;;;;90.43;27.10;;;8.00;1.00;;;;;;5125436;27;20797;-68
2021/03/10 08:36:37;;;;;;;93.35;26.00;;;8.10;1.00;;;;;;5132993;27;20554;-67
2021/03/10 08:39:09;;;;;;;89.23;26.00;;;8.20;1.00;;;;;;5112397;28;20195;-67
2021/03/10 08:41:46;;;;;;;94.25;27.00;;;8.30;1.00;;;;;;5125628;27;20456;-67
2021/03/10 08:44:13;;;;;;;93.90;26.40;;;8.40;1.00;;;;;;5125781;27;20284;-68
2021/03/10 08:46:40;;;;;;;90.90;25.05;;;8.50;1.00;;;;;;5132598;27;20482;-67
2021/03/10 08:49:22;;;;;;;88.77;26.17;;;8.50;1.00;;;;;;5126278;27;20304;-69
2021/03/10 08:51:48;;;;;;;89.95;26.05;;;8.60;1.00;;;;;;5127239;27;20451;-68
2021/03/10 08:54:17;;;;;;;91.57;25.87;;;8.80;1.00;;;;;;5125104;27;20205;-68
2021/03/10 08:56:49;;;;;;;91.87;26.67;;;8.90;1.00;;;;;;5124180;27;21006;-69
2021/03/10 08:59:16;;;;;;;89.80;26.40;;;9.20;1.00;;;;;;5124938;27;20448;-69
2021/03/10 09:01:49;;;;;;;96.30;27.83;;;9.40;1.00;;;;;;5127119;27;20451;-68
2021/03/10 09:04:24;;;;;;;89.43;25.00;;;9.70;1.00;;;;;;5120571;27;20458;-68
2021/03/10 09:06:51;;;;;;;83.13;23.13;;;9.90;1.00;;;;;;5131378;27;20466;-68
2021/03/10 09:09:18;;;;;;;88.03;24.67;;;10.00;1.00;;;;;;5127430;27;20539;-68
2021/03/10 09:11:45;;;;;;;88.40;26.00;;;10.10;1.00;;;;;;5131930;27;20933;-68
2021/03/10 09:14:13;;;;;;;86.60;23.00;;;10.10;1.00;;;;;;5132552;27;20871;-68
2021/03/10 09:16:50;;;;;;;88.63;24.17;;;10.00;1.00;;;;;;5132425;27;20460;-68
2021/03/10 09:19:17;;;;;;;92.87;26.80;;;10.10;1.00;;;;;;5132503;27;20443;-68
2021/03/10 09:21:44;;;;;;;85.27;23.90;;;10.30;1.00;;;;;;5132258;27;20526;-68
2021/03/10 09:24:10;;;;;;;86.27;24.40;;;10.40;1.00;;;;;;5132183;27;20538;-68
2021/03/10 09:26:38;;;;;;;85.70;23.90;;;10.60;1.00;;;;;;5132345;27;20470;-68
2021/03/10 09:29:04;;;;;;;86.63;25.10;;;10.70;1.00;;;;;;5132243;27;20489;-68
2021/03/10 09:31:31;;;;;;;87.63;24.63;;;10.80;1.00;;;;;;5132468;27;20455;-68
2021/03/10 09:34:03;;;;;;;88.27;24.40;;;10.90;1.00;;;;;;5132108;27;20534;-68
2021/03/10 09:36:30;;;;;;;83.70;24.00;;;10.90;1.00;;;;;;5132055;27;20483;-68
2021/03/10 09:38:59;;;;;;;88.23;23.40;;;11.00;1.00;;;;;;5132142;27;20480;-68
2021/03/10 09:41:26;;;;;;;82.30;21.87;;;11.10;1.00;;;;;;5132310;27;20511;-68
2021/03/10 09:44:06;;;;;;;85.90;23.97;;;11.30;1.00;;;;;;5132311;27;20528;-68
2021/03/10 09:46:39;;;;;;;84.20;22.40;;;11.20;1.00;;;;;;5132433;27;20852;-68
2021/03/10 09:49:05;;;;;;;83.60;23.10;;;11.10;1.00;;;;;;5131838;27;21015;-68
2021/03/10 09:51:32;;;;;;;83.20;22.00;;;11.10;1.00;;;;;;5123942;27;20464;-68
2021/03/10 09:54:00;;;;;;;87.07;23.83;;;11.10;1.00;;;;;;5131007;27;20455;-68
2021/03/10 09:56:26;;;;;;;84.67;22.53;;;11.20;1.00;;;;;;5131941;27;20467;-68
2021/03/10 09:58:55;;;;;;;83.57;20.53;;;11.20;1.00;;;;;;5131972;27;20447;-68
2021/03/10 10:01:22;;;;;;;83.87;22.20;;;11.10;1.00;;;;;;5131998;27;20444;-68
2021/03/10 10:03:48;;;;;;;86.83;21.63;;;11.00;1.00;;;;;;5131558;27;20450;-68
2021/03/10 10:06:17;;;;;;;83.23;21.27;;;10.80;1.00;;;;;;5132139;27;20478;-68
2021/03/10 10:08:44;;;;;;;80.17;20.70;;;10.60;1.00;;;;;;5132357;27;20483;-68
2021/03/10 10:11:12;;;;;;;81.80;20.30;;;10.60;1.00;;;;;;5136089;27;20454;-68
2021/03/10 10:13:41;;;;;;;86.03;22.60;;;10.70;1.00;;;;;;5135642;27;20818;-69
2021/03/10 10:16:08;;;;;;;82.07;21.60;;;11.20;1.00;;;;;;5135432;27;20533;-68
2021/03/10 10:18:34;;;;;;;82.50;22.73;;;11.80;1.00;;;;;;5135840;27;20519;-68
2021/03/10 10:21:01;;;;;;;84.37;21.30;;;11.90;1.00;;;;;;5135769;27;20564;-69
2021/03/10 10:23:27;;;;;;;79.60;20.97;;;12.00;1.00;;;;;;5132990;27;20449;-68
2021/03/10 10:25:54;;;;;;;82.27;21.87;;;12.60;1.00;;;;;;5133871;27;20445;-69
2021/03/10 10:28:22;;;;;;;79.90;20.40;;;13.40;1.00;;;;;;5135142;27;20567;-68
2021/03/10 10:30:48;;;;;;;79.63;19.83;;;14.00;1.00;;;;;;5135166;27;20445;-69
2021/03/10 10:33:14;;;;;;;78.53;20.53;;;14.60;1.00;;;;;;5135193;27;20963;-69
2021/03/10 10:35:41;;;;;;;75.90;18.00;;;14.80;1.00;;;;;;5135266;27;20456;-69
2021/03/10 10:38:08;;;;;;;74.70;17.20;;;14.60;1.00;;;;;;5135084;27;20453;-69
2021/03/10 10:40:35;;;;;;;70.97;14.00;;;14.00;1.00;;;;;;5135123;27;20527;-69
2021/03/10 10:43:02;;;;;;;74.73;16.40;;;13.40;1.00;;;;;;5132687;27;20508;-68
2021/03/10 10:45:29;;;;;;;72.70;15.60;;;12.90;1.00;;;;;;5134757;27;20539;-68
2021/03/10 10:47:55;;;;;;;72.40;14.00;;;12.60;1.00;;;;;;5134674;27;20488;-69
2021/03/10 10:50:22;;;;;;;71.10;12.77;;;12.40;1.00;;;;;;5135036;27;20480;-68
2021/03/10 10:52:48;;;;;;;67.70;11.40;;;12.50;1.00;;;;;;5134590;27;20484;-69
2021/03/10 10:55:18;;;;;;;68.57;12.17;;;13.30;1.00;;;;;;5134714;27;20545;-68
2021/03/10 10:57:45;;;;;;;67.80;11.03;;;13.90;1.00;;;;;;5134469;27;20972;-68
2021/03/10 11:00:13;;;;;;;66.10;9.90;;;14.40;1.00;;;;;;5134631;27;20440;-68
2021/03/10 11:02:40;;;;;;;65.20;10.30;;;14.80;1.00;;;;;;5134711;27;20859;-69
2021/03/10 11:05:08;;;;;;;66.63;10.40;;;15.00;1.00;;;;;;5134739;27;20449;-68
2021/03/10 11:07:34;;;;;;;62.77;8.60;;;15.10;1.00;;;;;;5134622;27;20475;-68
2021/03/10 11:10:00;;;;;;;64.00;9.50;;;15.10;1.00;;;;;;5134536;27;20529;-68
2021/03/10 11:12:27;;;;;;;65.03;10.50;;;15.00;1.00;;;;;;5134207;27;20481;-68
2021/03/10 11:14:53;;;;;;;66.30;11.80;;;15.00;1.00;;;;;;5134683;27;20450;-68
2021/03/10 11:17:19;;;;;;;68.73;11.87;;;14.80;1.00;;;;;;5134577;27;20464;-68
2021/03/10 11:19:47;;;;;;;69.93;11.80;;;14.30;1.00;;;;;;5134458;27;20436;-68
2021/03/10 11:22:13;;;;;;;66.67;11.37;;;13.90;1.00;;;;;;5133788;27;20463;-68
2021/03/10 11:24:39;;;;;;;64.73;11.40;;;13.60;1.00;;;;;;5127136;27;20539;-68
2021/03/10 11:27:06;;;;;;;68.30;10.77;;;13.70;1.00;;;;;;5133724;27;20468;-68
2021/03/10 11:29:33;;;;;;;65.67;10.80;;;14.00;1.00;;;;;;5134212;27;20580;-68
2021/03/10 11:32:01;;;;;;;69.67;11.90;;;14.10;1.00;;;;;;5134278;27;20909;-69
2021/03/10 11:34:27;;;;;;;66.60;10.97;;;14.20;1.00;;;;;;5134325;27;20494;-69
2021/03/10 11:36:54;;;;;;;67.37;10.93;;;14.30;1.00;;;;;;5133888;27;20507;-69
2021/03/10 11:39:21;;;;;;;69.33;12.50;;;14.40;1.00;;;;;;5133973;27;20958;-69
2021/03/10 11:41:48;;;;;;;76.77;16.90;;;14.40;1.00;;;;;;5134427;27;20475;-69
2021/03/10 11:44:14;;;;;;;74.37;15.60;;;14.50;1.00;;;;;;5127892;27;20768;-68
2021/03/10 11:46:40;;;;;;;66.97;11.50;;;15.10;1.00;;;;;;5132164;27;20567;-68
2021/03/10 11:49:07;;;;;;;67.87;11.80;;;16.20;1.00;;;;;;5133683;27;20488;-68
2021/03/10 11:51:34;;;;;;;84.03;22.33;;;16.90;1.00;;;;;;5133640;27;20447;-69
2021/03/10 11:54:02;;;;;;;65.80;12.20;;;17.20;1.00;;;;;;5133679;27;20534;-68
2021/03/10 11:56:28;;;;;;;62.10;7.67;;;17.50;1.00;;;;;;5128127;27;20479;-69
2021/03/10 11:58:56;;;;;;;67.63;10.40;;;18.00;1.00;;;;;;5132292;27;20797;-69
2021/03/10 12:01:23;;;;;;;62.30;8.63;;;18.20;1.00;;;;;;5128235;27;20451;-69
2021/03/10 12:03:49;;;;;;;63.30;8.70;;;18.60;1.00;;;;;;5133113;27;20490;-68
2021/03/10 12:06:16;;;;;;;65.90;10.07;;;18.90;1.00;;;;;;5133187;27;20543;-66
2021/03/10 12:08:42;;;;;;;64.70;9.63;;;19.20;1.00;;;;;;5129573;27;20480;-68
2021/03/10 12:11:09;;;;;;;65.60;10.07;;;19.20;1.00;;;;;;5133298;27;20961;-68
2021/03/10 12:13:36;;;;;;;67.90;13.10;;;19.00;1.00;;;;;;5133504;27;20494;-68
2021/03/10 12:16:02;;;;;;;70.07;14.10;;;18.50;1.00;;;;;;5133465;27;20456;-69
2021/03/10 12:18:29;;;;;;;64.97;10.30;;;17.90;1.00;;;;;;5133446;27;20451;-68
2021/03/10 12:20:55;;;;;;;63.43;9.33;;;17.30;1.00;;;;;;5133398;27;20479;-68
2021/03/10 12:23:21;;;;;;;67.07;11.70;;;16.70;1.00;;;;;;5132974;27;21001;-69
2021/03/10 12:25:48;;;;;;;68.17;12.33;;;16.20;1.00;;;;;;5133051;27;20933;-68
2021/03/10 12:28:15;;;;;;;66.30;11.40;;;15.80;1.00;;;;;;5133118;27;20441;-68
2021/03/10 12:30:41;;;;;;;69.80;12.47;;;15.40;1.00;;;;;;5133559;27;20832;-68
2021/03/10 12:33:07;;;;;;;66.87;10.63;;;15.10;1.00;;;;;;5132008;27;20450;-69
2021/03/10 12:35:34;;;;;;;66.90;10.70;;;14.70;1.00;;;;;;5132952;27;20896;-69
2021/03/10 12:38:00;;;;;;;66.47;11.43;;;14.40;1.00;;;;;;5132722;27;20547;-69
2021/03/10 12:40:27;;;;;;;66.20;10.80;;;14.20;1.00;;;;;;5133178;27;20812;-68
2021/03/10 12:42:54;;;;;;;65.17;10.00;;;13.90;1.00;;;;;;5132882;27;20550;-68
2021/03/10 12:45:21;;;;;;;63.87;9.63;;;13.80;1.00;;;;;;5132854;27;20463;-68
2021/03/10 12:47:48;;;;;;;64.80;9.77;;;13.70;1.00;;;;;;5132717;27;20472;-69